Tiempo atmosférico en la estación meteorológica de Labastida, Araba/Álava (610 m.)



Fecha
DESCASC
Temp. máxima en grados centígrados (hora)
DESCASC
Temp. mínima en grados centígrados (hora)
DESCASC
Temp. media en grados centígrados
DESCASC
Racha de viento máxima en m/sg (hora)
DESCASC
Velocidad máxima media en intervalos de 10 minutos(hora)
DESCASC
Precipitaciones diarias en mm
DESCASC
Precipitaciones de 00:00 a 06:00 en mm
DESCASC
Precipitaciones de 06:00 a 12:00 en mm
DESCASC
Precipitaciones de 12:00 a 18:00 en mm
DESCASC
Precipitaciones de 18:00 a 24:00 en mm
DESCASC
21-02-2019 15.8 (15:50) 0.9 (07:20) 8.4 6.67 (17:30) 3.61 (17:10) 0 0 0 0 0
20-02-2019 12 (16:30) 2 (03:50) 7 5.83 (14:00) 3.06 (14:00) 0 0 0 0 0
19-02-2019 13.2 (16:00) 4.4 (23:50) 8.8 5.28 (16:40) 2.5 (16:50) 0 0 0 0 0
18-02-2019 13.2 (15:30) 3.1 (06:40) 8.1 10 (12:00) 5.28 (14:40) 0 0 0 0 0
17-02-2019 15.4 (16:00) -0.7 (-00:0) 7.3 13.33 (00:10) 5.83 (00:10) 0 0 0 0 0
16-02-2019 14.2 (14:10) -0.3 (00:00) 6.9 14.17 (18:40) 6.94 (21:20) 0 0 0 0 0
15-02-2019 13.6 (16:00) -0.2 (00:00) 6.7 6.67 (17:30) 3.33 (17:30) 0 0 0 0 0
14-02-2019 13.7 (16:10) 1.6 (00:00) 7.6 14.44 (20:20) 6.67 (14:00) 0 0 0 0 0
13-02-2019 13.7 (16:00) 0.1 (00:00) 6.9 8.33 (15:40) 3.89 (16:20) 0 0 0 0 0
12-02-2019 13.5 (16:20) 0.9 (00:00) 7.2 5.56 (04:00) 2.78 (06:10) 0 0 0 0 0
11-02-2019 8.9 (14:30) 2.9 (00:00) 5.9 10 (21:10) 5 (15:00) 0.4 0 0.2 0 0.2
10-02-2019 11.2 (11:30) 5.8 (00:00) 8.5 17.22 (17:20) 10 (17:10) 7.8 0 0 7.8 0
09-02-2019 13 (17:20) 6.8 (00:00) 9.9 11.11 (11:10) 5.83 (22:40) 0 0 0 0 0
08-02-2019 13.6 (17:00) 0.5 (00:00) 7.1 9.72 (22:30) 5 (23:30) 0 0 0 0 0
07-02-2019 12.3 (14:10) 3.7 (00:00) 8 9.44 (15:50) 6.11 (15:50) 0 0 0 0 0
06-02-2019 15.3 (16:30) 1.2 (00:00) 8.3 8.33 (17:30) 4.44 (18:00) 0 0 0 0 0
05-02-2019 13.7 (17:30) 3.3 (00:00) 8.5 6.67 (13:50) 4.17 (14:00) 0 0 0 0 0
04-02-2019 6.2 (21:30) -2.2 (-00:0) 2 7.5 (08:20) 4.44 (19:10) 0 0 0 0 0
03-02-2019 3.8 (12:10) -0.1 (00:00) 1.8 15.28 (01:00) 6.11 (01:10) 5 1.8 2.4 0.6 0.2
02-02-2019 3.8 (13:30) 0.1 (00:00) 1.9 13.61 (10:50) 6.94 (12:50) 31.4 16 8.4 3 4
01-02-2019 9.8 (01:30) 3.1 (00:00) 6.5 17.5 (15:30) 7.5 (15:30) 2 0 0.2 1.8 0
31-01-2019 11.6 (13:10) 3.9 (00:00) 7.8 11.11 (12:50) 4.72 (12:50) 14.6 7.4 4 0 3.2
30-01-2019 7.9 (16:10) 2.4 (00:00) 5.2 10.28 (15:20) 4.44 (00:20) 3.2 0 0 0 3.2
29-01-2019 8.8 (16:40) 2.4 (00:00) 5.6 19.17 (17:40) 9.72 (17:30) 0.8 0 0 0.8 0
28-01-2019 6.9 (13:50) 2.5 (00:00) 4.7 11.67 (13:30) 5.56 (13:30) 9.6 0.2 0.2 7.4 1.8
27-01-2019 9.3 (01:10) 3.6 (00:00) 6.5 15.83 (09:10) 7.5 (09:10) 1.2 0 0 0.6 0.6
26-01-2019 12.2 (15:10) 3.9 (00:00) 8 9.44 (21:20) 5.28 (21:10) 0 0 0 0 0
25-01-2019 9.8 (13:20) 6.6 (00:00) 8.2 13.61 (04:20) 6.94 (04:30) 2.6 1.2 1.2 0 0.2
24-01-2019 7.7 (20:40) 3.7 (00:00) 5.7 15.83 (21:00) 8.61 (20:50) 8.4 4.4 3.8 0.2 0

Gráficas

Temp. máximas Temp. mínimas Temp. medias Precipitaciones Rachas de viento máximas Velocidades máximas media en intervalos de 10 minutos

Datos horarios

Fecha y hora oficial Temperatura (ºC) Velocidad del viento (km/h) Dirección del viento Racha (km/h) Dirección de racha Precipitación (mm) Presión (hPa) Tendencia (hPa) Humedad (%)
2019-02-22 23:00:00 7.8 0 Calma 8 Norte 0 -- -- 52
2019-02-22 22:00:00 8.9 0 Calma 9 Norte 0 -- -- 49
2019-02-22 21:00:00 10.6 5 Noroeste 11 Noroeste 0 -- -- 50
2019-02-22 20:00:00 13 6 Noroeste 15 Norte 0 -- -- 37
2019-02-22 19:00:00 15.8 9 Norte 14 Norte 0 -- -- 30
2019-02-22 18:00:00 18.4 6 Noroeste 16 Norte 0 -- -- 32
2019-02-22 17:00:00 19.6 5 Oeste 11 Sudoeste 0 -- -- 29
2019-02-22 16:00:00 18.3 5 Noroeste 10 Oeste 0 -- -- 29
2019-02-22 15:00:00 18.1 7 Oeste 14 Oeste 0 -- -- 33
2019-02-22 14:00:00 16.9 5 Oeste 11 Oeste 0 -- -- 40
2019-02-22 13:00:00 15.2 4 Sudoeste 9 Sudoeste 0 -- -- 51
2019-02-22 12:00:00 12.5 3 Sudoeste 6 Sudoeste 0 -- -- 61
2019-02-22 11:00:00 8.9 3 Sudoeste 8 Oeste 0 -- -- 72
2019-02-22 10:00:00 6.4 3 Sur 7 Sudoeste 0 -- -- 83
2019-02-22 09:00:00 3.3 0 Calma 4 Nordeste 0 -- -- 88
2019-02-22 08:00:00 2.1 3 Nordeste 7 Norte 0 -- -- 89
2019-02-22 07:00:00 2.6 2 Norte 7 Norte 0 -- -- 89
2019-02-22 06:00:00 3.7 2 Sudeste 8 Este 0 -- -- 89
2019-02-22 05:00:00 3.3 0 Calma 4 Nordeste 0 -- -- 90
2019-02-22 04:00:00 3.5 0 Calma 5 Norte 0 -- -- 91
2019-02-22 03:00:00 3.8 3 Norte 5 Sudeste 0 -- -- 90
2019-02-22 02:00:00 5.4 4 Norte 9 Norte 0 -- -- 86
2019-02-22 01:00:00 5.1 2 Sudeste 7 Norte 0 -- -- 88
2019-02-22 00:00:00 5.4 3 Norte 8 Norte 0 -- -- 86
2019-02-21 23:00:00 6.4 2 Sudeste 6 Este 0 -- -- 82
2019-02-21 22:00:00 6.6 3 Sudeste 4 Este 0 -- -- 82
2019-02-21 21:00:00 7.2 0 Calma 9 Norte 0 -- -- 79
2019-02-21 20:00:00 8.2 4 Norte 8 Nordeste 0 -- -- 76
2019-02-21 19:00:00 9.5 4 Norte 15 Sur 0 -- -- 74
2019-02-21 18:00:00 13.7 6 Sudeste 24 Sur 0 -- -- 61
2019-02-21 17:00:00 15.1 12 Sur 22 Sur 0 -- -- 57
2019-02-21 16:00:00 15.8 7 Sur 17 Sur 0 -- -- 57
2019-02-21 15:00:00 14.5 9 Sudoeste 18 Sudoeste 0 -- -- 61
2019-02-21 14:00:00 13.8 8 Sudoeste 20 Sudoeste 0 -- -- 64
2019-02-21 13:00:00 11.8 4 Oeste 12 Sur 0 -- -- 71
2019-02-21 12:00:00 8.5 6 Sudoeste 10 Sudoeste 0 -- -- 80
2019-02-21 11:00:00 7.3 3 Sur 6 Sudeste 0 -- -- 84
2019-02-21 10:00:00 3.9 2 Sudoeste 5 Sur 0 -- -- 96
2019-02-21 09:00:00 2.5 3 Sur 4 Sur 0 -- -- 97
2019-02-21 08:00:00 1.2 0 Calma 4 Norte 0 -- -- 96
2019-02-21 07:00:00 1.2 0 Calma 3 Sudeste 0 -- -- 96
2019-02-21 06:00:00 1.4 0 Calma 4 Nordeste 0 -- -- 96
2019-02-21 05:00:00 1.6 0 Calma 5 Nordeste 0 -- -- 94
2019-02-21 04:00:00 2 0 Calma 3 Nordeste 0 -- -- 94
2019-02-21 03:00:00 2.4 0 Calma 5 Este 0 -- -- 93
2019-02-21 02:00:00 3.1 2 Este 6 Sur 0 -- -- 93
2019-02-21 01:00:00 4.9 5 Sudeste 9 Este 0 -- -- 91
2019-02-21 00:00:00 3.8 0 Calma 5 Este 0 -- -- 92
2019-02-20 23:00:00 4.2 3 Nordeste 8 Este 0 -- -- 92
2019-02-20 22:00:00 3.9 3 Norte 6 Nordeste 0 -- -- 90
2019-02-20 21:00:00 4.3 4 Norte 9 Norte 0 -- -- 90
2019-02-20 20:00:00 5.4 4 Norte 6 Nordeste 0 -- -- 89
2019-02-20 19:00:00 6.5 4 Norte 12 Sudoeste 0 -- -- 85
2019-02-20 18:00:00 10.8 4 Sur 10 Sur 0 -- -- 71
2019-02-20 17:00:00 11.8 5 Sur 15 Sur 0 -- -- 69
2019-02-20 16:00:00 11.4 6 Sur 14 Sudoeste 0 -- -- 71
2019-02-20 15:00:00 10.8 7 Sur 19 Sudoeste 0 -- -- 72
2019-02-20 14:00:00 10.2 11 Sudoeste 21 Sudoeste 0 -- -- 74
2019-02-20 13:00:00 9.5 6 Sur 17 Sudoeste 0 -- -- 76
2019-02-20 12:00:00 7.1 5 Sur 13 Sur 0 -- -- 90
2019-02-20 11:00:00 5.1 5 Sur 10 Sudeste 0 -- -- 95
2019-02-20 10:00:00 3.7 3 Sur 6 Sur 0 -- -- 96
2019-02-20 09:00:00 2.8 2 Sur 8 Sudeste 0 -- -- 96
2019-02-20 08:00:00 2.2 3 Nordeste 7 Nordeste 0 -- -- 96
2019-02-20 07:00:00 2.5 0 Calma 12 Este 0 -- -- 95
2019-02-20 06:00:00 2.4 4 Sudeste 8 Sudeste 0 -- -- 95
2019-02-20 05:00:00 2.3 3 Este 6 Nordeste 0 -- -- 94
2019-02-20 04:00:00 2.3 2 Este 8 Nordeste 0 -- -- 94
2019-02-20 03:00:00 2.6 3 Norte 6 Nordeste 0 -- -- 92
2019-02-20 02:00:00 3.1 0 Calma 6 Nordeste 0 -- -- 92
2019-02-20 01:00:00 4.1 0 Calma 7 Norte 0 -- -- 88
2019-02-20 00:00:00 4.4 4 Norte 8 Nordeste 0 -- -- 86
2019-02-19 23:00:00 5.5 3 Norte 6 Noroeste 0 -- -- 84
2019-02-19 22:00:00 5.9 0 Calma 5 Sudeste 0 -- -- 82
2019-02-19 21:00:00 7.1 0 Calma 15 Sudeste 0 -- -- 78
2019-02-19 20:00:00 8 6 Sudeste 16 Sudeste 0 -- -- 78
2019-02-19 19:00:00 8.3 0 Calma 12 Sur 0 -- -- 76
2019-02-19 18:00:00 11.5 6 Sur 18 Sur 0 -- -- 65
2019-02-19 17:00:00 12.8 9 Sur 19 Sur 0 -- -- 62
2019-02-19 16:00:00 13.2 7 Sur 17 Sur 0 -- -- 62
2019-02-19 15:00:00 12.3 6 Sudoeste 14 Sudoeste 0 -- -- 64
2019-02-19 14:00:00 12.1 4 Sudoeste 10 Sudoeste 0 -- -- 65
2019-02-19 13:00:00 9.4 5 Sudoeste 10 Sudoeste 0 -- -- 73
2019-02-19 12:00:00 8.4 4 Oeste 8 Noroeste 0 -- -- 76
2019-02-19 11:00:00 6.4 2 Sudoeste 5 Sudoeste 0 -- -- 83
2019-02-19 10:00:00 5.5 3 Oeste 7 Oeste 0 -- -- 85
2019-02-19 09:00:00 5 0 Calma 5 Sudeste 0 -- -- 89
2019-02-19 08:00:00 5.1 3 Norte 5 Sudeste 0 -- -- 88
2019-02-19 07:00:00 5.4 3 Sudeste 18 Sudeste 0 -- -- 86
2019-02-19 06:00:00 6.1 6 Este 18 Este 0 -- -- 86
2019-02-19 05:00:00 5.4 4 Norte 10 Este 0 -- -- 88
2019-02-19 04:00:00 5.7 4 Norte 7 Nordeste 0 -- -- 86
2019-02-19 03:00:00 6.1 5 Noroeste 12 Noroeste 0 -- -- 83
2019-02-19 02:00:00 6.1 5 Noroeste 9 Norte 0 -- -- 82
2019-02-19 01:00:00 5.7 3 Este 9 Oeste 0 -- -- 80
2019-02-19 00:00:00 5.7 3 Norte 6 Norte 0 -- -- 78
2019-02-18 23:00:00 6.1 2 Nordeste 14 Este 0 -- -- 74
2019-02-18 22:00:00 7.8 6 Este 13 Este 0 -- -- 64
2019-02-18 21:00:00 8.1 2 Sudeste 12 Norte 0 -- -- 68
2019-02-18 20:00:00 8.3 7 Norte 12 Nordeste 0 -- -- 69
2019-02-18 19:00:00 8.4 5 Nordeste 11 Este 0 -- -- 70
2019-02-18 18:00:00 10.6 4 Este 19 Sudeste 0 -- -- 60
2019-02-18 17:00:00 11.6 4 Sudeste 28 Sur 0 -- -- 56
2019-02-18 16:00:00 12.5 12 Sur 31 Sur 0 -- -- 52
2019-02-18 15:00:00 12.2 13 Sur 34 Sur 0 -- -- 56
2019-02-18 14:00:00 11.8 18 Sur 32 Sur 0 -- -- 57
2019-02-18 13:00:00 11.3 12 Sur 28 Sudeste 0 -- -- 60
2019-02-18 12:00:00 10.9 13 Sur 36 Sur 0 -- -- 57
2019-02-18 11:00:00 10.2 13 Sur 31 Sur 0 -- -- 56
2019-02-18 10:00:00 7.8 10 Sudoeste 26 Sur 0 -- -- 66
2019-02-18 09:00:00 4.8 8 Noroeste 23 Noroeste 0 -- -- 76
2019-02-18 08:00:00 3.8 8 Noroeste 18 Noroeste 0 -- -- 77
2019-02-18 07:00:00 3.7 7 Noroeste 14 Noroeste 0 -- -- 75
2019-02-18 06:00:00 4.4 6 Noroeste 13 Noroeste 0 -- -- 70
2019-02-18 05:00:00 5.1 6 Norte 13 Norte 0 -- -- 66
2019-02-18 04:00:00 5.1 6 Norte 11 Nordeste 0 -- -- 65
2019-02-18 03:00:00 6 4 Norte 12 Noroeste 0 -- -- 59
2019-02-18 02:00:00 7.8 5 Norte 23 Sudeste 0 -- -- 49
2019-02-18 01:00:00 9.6 7 Sudeste 27 Sudeste 0 -- -- 42
2019-02-18 00:00:00 10.6 10 Sudeste 24 Sudeste 0 -- -- 35
2019-02-17 23:00:00 11 9 Sudeste 33 Sudeste 0 -- -- 32
2019-02-17 22:00:00 11.5 12 Sudeste 33 Sudeste 0 -- -- 32
2019-02-17 21:00:00 11.9 14 Sudeste 37 Sudeste 0 -- -- 32
2019-02-17 20:00:00 12.5 17 Sudeste 40 Este 0 -- -- 29
2019-02-17 19:00:00 12.8 16 Sudeste 40 Sudeste 0 -- -- 29
2019-02-17 18:00:00 13.7 14 Sudeste 38 Sudeste 0 -- -- 29
2019-02-17 17:00:00 15.2 14 Sudeste 42 Sudeste 0 -- -- 28
2019-02-17 16:00:00 15.4 16 Sudeste 40 Sudeste 0 -- -- 27
2019-02-17 15:00:00 14.9 18 Sudeste 37 Sur 0 -- -- 29
2019-02-17 14:00:00 14.3 15 Sur 34 Sudeste 0 -- -- 30
2019-02-17 13:00:00 12.7 15 Sur 33 Sudeste 0 -- -- 30
2019-02-17 12:00:00 11.6 14 Sur 33 Sur 0 -- -- 32
2019-02-17 11:00:00 7.2 3 Sudoeste 8 Sudoeste 0 -- -- 50
2019-02-17 10:00:00 2.4 3 Sur 9 Sur 0 -- -- 65
2019-02-17 09:00:00 0.1 0 Calma 6 Sudeste 0 -- -- 73
2019-02-17 08:00:00 -0.5 4 Nordeste 8 Nordeste 0 -- -- 74
2019-02-17 07:00:00 0 4 Nordeste 7 Norte 0 -- -- 73
2019-02-17 06:00:00 0.8 4 Norte 7 Norte 0 -- -- 70
2019-02-17 05:00:00 2.3 4 Norte 16 Noroeste 0 -- -- 66
2019-02-17 04:00:00 5.1 9 Norte 21 Noroeste 0 -- -- 58
2019-02-17 03:00:00 8.8 10 Sudeste 27 Sur 0 -- -- 43
2019-02-17 02:00:00 10 8 Sudeste 34 Sudeste 0 -- -- 40
2019-02-17 01:00:00 10.2 14 Sudeste 48 Sudeste 0 -- -- 42
2019-02-17 00:00:00 10.4 17 Sudeste 45 Este 0 -- -- 42
2019-02-16 23:00:00 11 22 Sudeste 45 Este 0 -- -- 41
2019-02-16 22:00:00 11.3 19 Sudeste 47 Este 0 -- -- 40
2019-02-16 21:00:00 11.6 22 Sudeste 49 Sudeste 0 -- -- 40
2019-02-16 20:00:00 11.6 23 Sudeste 51 Sudeste 0 -- -- 51
2019-02-16 19:00:00 11.9 21 Sudeste 51 Sudeste 0 -- -- 46
2019-02-16 18:00:00 12.6 18 Sudeste 45 Sudeste 0 -- -- 47
2019-02-16 17:00:00 13.5 18 Sudeste 47 Sudeste 0 -- -- 47
2019-02-16 16:00:00 13.8 18 Sudeste 46 Sudeste 0 -- -- 48
2019-02-16 15:00:00 14 17 Sudeste 46 Sudeste 0 -- -- 53
2019-02-16 14:00:00 13.8 16 Sudeste 38 Sudeste 0 -- -- 54
2019-02-16 13:00:00 12.7 19 Sur 36 Sur 0 -- -- 60
2019-02-16 12:00:00 8.3 5 Sur 12 Sudoeste 0 -- -- 73
2019-02-16 11:00:00 4.5 5 Sudoeste 10 Sur 0 -- -- 81
2019-02-16 10:00:00 2.3 2 Sur 6 Sur 0 -- -- 90
2019-02-16 09:00:00 0.9 2 Sur 5 Sudeste 0 -- -- 93
2019-02-16 08:00:00 -0.3 0 Calma 6 Norte 0 -- -- 93
2019-02-16 07:00:00 0.4 2 Este 4 Este 0 -- -- 92
2019-02-16 06:00:00 0.5 2 Nordeste 5 Nordeste 0 -- -- 90
2019-02-16 05:00:00 1 0 Calma 3 Nordeste 0 -- -- 89
2019-02-16 04:00:00 1.6 4 Este 8 Nordeste 0 -- -- 83
2019-02-16 03:00:00 2.1 5 Norte 8 Nordeste 0 -- -- 81
2019-02-16 02:00:00 2 4 Norte 6 Norte 0 -- -- 82
2019-02-16 01:00:00 2.2 4 Nordeste 7 Norte 0 -- -- 81
2019-02-16 00:00:00 2.3 2 Nordeste 4 Nordeste 0 -- -- 78
2019-02-15 23:00:00 3.1 2 Este 6 Nordeste 0 -- -- 73
2019-02-15 22:00:00 4 4 Nordeste 6 Nordeste 0 -- -- 71
2019-02-15 21:00:00 5.8 5 Nordeste 10 Nordeste 0 -- -- 63
2019-02-15 20:00:00 6.3 6 Nordeste 10 Nordeste 0 -- -- 67
2019-02-15 19:00:00 7.9 5 Norte 10 Sudeste 0 -- -- 62
2019-02-15 18:00:00 12.5 6 Sur 24 Sudeste 0 -- -- 47
2019-02-15 17:00:00 13.3 10 Sur 23 Sur 0 -- -- 54
2019-02-15 16:00:00 13.6 8 Sur 21 Sur 0 -- -- 56
2019-02-15 15:00:00 12.7 8 Sur 21 Sur 0 -- -- 61
2019-02-15 14:00:00 12.3 10 Sur 22 Sur 0 -- -- 66
2019-02-15 13:00:00 10.3 8 Sur 17 Sur 0 -- -- 71
2019-02-15 12:00:00 8.5 7 Sudoeste 14 Sudoeste 0 -- -- 73
2019-02-15 11:00:00 6.5 5 Sur 11 Sur 0 -- -- 78
2019-02-15 10:00:00 2.5 3 Sur 6 Sur 0 -- -- 91
2019-02-15 09:00:00 0.5 0 Calma 5 Sudeste 0 -- -- 93
2019-02-15 08:00:00 0.2 3 Sudeste 7 Sur 0 -- -- 93
2019-02-15 07:00:00 0.4 2 Nordeste 4 Norte 0 -- -- 91
2019-02-15 06:00:00 1 2 Este 7 Sudeste 0 -- -- 90
2019-02-15 05:00:00 2 3 Este 10 Este 0 -- -- 87
2019-02-15 04:00:00 1.5 3 Este 7 Norte 0 -- -- 91
2019-02-15 03:00:00 2.2 6 Nordeste 9 Norte 0 -- -- 89
2019-02-15 02:00:00 2.5 5 Norte 9 Nordeste 0 -- -- 86
2019-02-15 01:00:00 3.3 5 Norte 10 Norte 0 -- -- 83
2019-02-15 00:00:00 5.2 3 Norte 11 Este 0 -- -- 74
2019-02-14 23:00:00 7.1 5 Sudoeste 21 Sudeste 0 -- -- 65
2019-02-14 22:00:00 8 4 Nordeste 35 Sudeste 0 -- -- 55
2019-02-14 21:00:00 10.7 8 Sur 52 Este 0 -- -- 40
2019-02-14 20:00:00 12 19 Este 46 Sudeste 0 -- -- 28
2019-02-14 19:00:00 11.1 19 Sudeste 44 Sudeste 0 -- -- 43
2019-02-14 18:00:00 11.8 13 Sur 32 Sur 0 -- -- 49
2019-02-14 17:00:00 13 18 Sur 40 Sur 0 -- -- 44
2019-02-14 16:00:00 13.5 17 Sur 40 Sur 0 -- -- 44
2019-02-14 15:00:00 12.5 18 Sudeste 43 Sur 0 -- -- 46
2019-02-14 14:00:00 11.7 24 Sur 41 Sur 0 -- -- 52
2019-02-14 13:00:00 11.3 19 Sudeste 44 Sudeste 0 -- -- 49
2019-02-14 12:00:00 11 22 Sur 49 Sur 0 -- -- 54
2019-02-14 11:00:00 8.8 11 Sur 29 Sudeste 0 -- -- 70
2019-02-14 10:00:00 7 13 Sur 29 Sur 0 -- -- 76
2019-02-14 09:00:00 5.6 9 Sudeste 31 Sur 0 -- -- 79
2019-02-14 08:00:00 3.4 6 Sudoeste 18 Oeste 0 -- -- 93
2019-02-14 07:00:00 1.9 3 Nordeste 9 Noroeste 0 -- -- 92
2019-02-14 06:00:00 2.1 5 Norte 11 Norte 0 -- -- 91
2019-02-14 05:00:00 2 0 Calma 11 Noroeste 0 -- -- 91
2019-02-14 04:00:00 2.8 4 Norte 9 Nordeste 0 -- -- 90
2019-02-14 03:00:00 2.8 5 Norte 9 Nordeste 0 -- -- 88
2019-02-14 02:00:00 3.1 4 Nordeste 8 Norte 0 -- -- 88
2019-02-14 01:00:00 3.1 2 Norte 5 Nordeste 0 -- -- 87
2019-02-14 00:00:00 3.3 2 Norte 7 Norte 0 -- -- 87
2019-02-13 23:00:00 4.4 5 Nordeste 8 Nordeste 0 -- -- 81
2019-02-13 22:00:00 5.9 3 Norte 15 Sur 0 -- -- 74
2019-02-13 21:00:00 7.5 4 Sur 17 Sur 0 -- -- 68
2019-02-13 20:00:00 7.6 4 Sudeste 13 Sur 0 -- -- 71
2019-02-13 19:00:00 8.7 6 Sudeste 20 Sudeste 0 -- -- 70
2019-02-13 18:00:00 11.8 9 Sudeste 28 Sudeste 0 -- -- 57
2019-02-13 17:00:00 13.2 13 Sur 27 Sudeste 0 -- -- 55
2019-02-13 16:00:00 13.7 13 Sur 30 Sudeste 0 -- -- 54
2019-02-13 15:00:00 13.3 14 Sur 26 Sur 0 -- -- 57
2019-02-13 14:00:00 13.1 11 Sudeste 21 Sur 0 -- -- 57
2019-02-13 13:00:00 11.2 6 Sur 15 Sur 0 -- -- 63
2019-02-13 12:00:00 8.2 6 Sudoeste 10 Sur 0 -- -- 69
2019-02-13 11:00:00 6.5 4 Sudoeste 6 Sudoeste 0 -- -- 73
2019-02-13 10:00:00 2.9 0 Calma 4 Oeste 0 -- -- 89
2019-02-13 09:00:00 1.2 0 Calma 5 Nordeste 0 -- -- 91
2019-02-13 08:00:00 0.1 3 Norte 5 Nordeste 0 -- -- 91
2019-02-13 07:00:00 0.4 0 Calma 4 Sudeste 0 -- -- 92
2019-02-13 06:00:00 0.7 0 Calma 4 Nordeste 0 -- -- 91
2019-02-13 05:00:00 0.8 3 Nordeste 5 Nordeste 0 -- -- 92
2019-02-13 04:00:00 1.2 0 Calma 3 Sudeste 0 -- -- 89
2019-02-13 03:00:00 1.7 0 Calma 5 Nordeste 0 -- -- 88
2019-02-13 02:00:00 2.4 0 Calma 5 Norte 0 -- -- 84
2019-02-13 01:00:00 2.5 0 Calma 6 Norte 0 -- -- 83
2019-02-13 00:00:00 2.8 3 Nordeste 8 Norte 0 -- -- 84
2019-02-12 23:00:00 3.7 0 Calma 4 Noroeste 0 -- -- 81
2019-02-12 22:00:00 5.1 2 Este 8 Nordeste 0 -- -- 76
2019-02-12 21:00:00 5.4 2 Este 8 Este 0 -- -- 75
2019-02-12 20:00:00 6.9 5 Este 8 Este 0 -- -- 70
2019-02-12 19:00:00 7.6 3 Este 6 Este 0 -- -- 73
2019-02-12 18:00:00 12.1 5 Sudoeste 11 Sudoeste 0 -- -- 61
2019-02-12 17:00:00 12.9 5 Sudoeste 12 Sudoeste 0 -- -- 59
2019-02-12 16:00:00 13 4 Sur 12 Sudoeste 0 -- -- 61
2019-02-12 15:00:00 12.2 5 Sudoeste 12 Sur 0 -- -- 64
2019-02-12 14:00:00 11.1 5 Sur 12 Sudoeste 0 -- -- 65
2019-02-12 13:00:00 10.1 5 Sudoeste 12 Sudoeste 0 -- -- 64
2019-02-12 12:00:00 8.8 3 Sur 10 Sudoeste 0 -- -- 72
2019-02-12 11:00:00 7 4 Sudoeste 7 Sudoeste 0 -- -- 72
2019-02-12 10:00:00 3.8 4 Sudoeste 9 Sur 0 -- -- 88
2019-02-12 09:00:00 1.2 4 Norte 13 Nordeste 0 -- -- 93
2019-02-12 08:00:00 1.1 2 Norte 9 Sur 0 -- -- 92
2019-02-12 07:00:00 3.6 6 Noroeste 17 Norte 0 -- -- 87
2019-02-12 06:00:00 1.7 6 Nordeste 10 Nordeste 0 -- -- 89
2019-02-12 05:00:00 1.9 2 Nordeste 13 Nordeste 0 -- -- 89
2019-02-12 04:00:00 3.6 7 Este 20 Este 0 -- -- 86
2019-02-12 03:00:00 3.1 3 Este 6 Nordeste 0 -- -- 89
2019-02-12 02:00:00 4 0 Calma 8 Noroeste 0 -- -- 89
2019-02-12 01:00:00 3.9 2 Norte 8 Nordeste 0 -- -- 89
2019-02-12 00:00:00 4 4 Norte 13 Sudoeste 0 -- -- 86
2019-02-11 23:00:00 5.1 4 Sur 13 Sur 0 -- -- 83
2019-02-11 22:00:00 4.3 4 Sudoeste 36 Nordeste 0 -- -- 85
2019-02-11 21:00:00 5.5 8 Este 25 Nordeste 0 -- -- 78
2019-02-11 20:00:00 5.3 8 Nordeste 21 Este 0.2 -- -- 84
2019-02-11 19:00:00 6 6 Noroeste 17 Este 0 -- -- 80
2019-02-11 18:00:00 7 9 Nordeste 23 Nordeste 0 -- -- 74
2019-02-11 17:00:00 7.6 12 Nordeste 30 Nordeste 0 -- -- 69
2019-02-11 16:00:00 8.6 9 Norte 26 Nordeste 0 -- -- 69
2019-02-11 15:00:00 7.3 18 Nordeste 35 Nordeste 0 -- -- 76
2019-02-11 14:00:00 7.7 10 Noroeste 26 Norte 0 -- -- 75
2019-02-11 13:00:00 7.5 15 Norte 30 Noroeste 0 -- -- 72
2019-02-11 12:00:00 7.5 11 Noroeste 24 Noroeste 0 -- -- 74
2019-02-11 11:00:00 5.8 12 Norte 23 Nordeste 0 -- -- 78
2019-02-11 10:00:00 4.9 6 Norte 14 Nordeste 0.2 -- -- 83
2019-02-11 09:00:00 3.6 3 Noroeste 15 Nordeste 0 -- -- 88
2019-02-11 08:00:00 3.9 7 Norte 21 Norte 0 -- -- 82
2019-02-11 07:00:00 3.2 2 Norte 14 Norte 0 -- -- 86
2019-02-11 06:00:00 4 5 Norte 13 Norte 0 -- -- 78
2019-02-11 05:00:00 3.3 3 Noroeste 10 Noroeste 0 -- -- 87
2019-02-11 04:00:00 4.7 7 Noroeste 19 Norte 0 -- -- 76
2019-02-11 03:00:00 5.1 9 Norte 32 Noroeste 0 -- -- 75
2019-02-11 02:00:00 5.4 5 Noroeste 15 Noroeste 0 -- -- 79
2019-02-11 01:00:00 5.3 6 Noroeste 22 Norte 0 -- -- 82
2019-02-11 00:00:00 5.8 6 Noroeste 30 Norte 0 -- -- 80
2019-02-10 23:00:00 6 16 Norte 37 Noroeste 0 -- -- 78
2019-02-10 22:00:00 5.9 23 Nordeste 41 Nordeste 0 -- -- 81
2019-02-10 21:00:00 6.1 27 Nordeste 45 Nordeste 0 -- -- 79
2019-02-10 20:00:00 6.3 27 Nordeste 52 Nordeste 0 -- -- 79
2019-02-10 19:00:00 6.1 28 Norte 56 Norte 0 -- -- 83
2019-02-10 18:00:00 7.1 25 Nordeste 62 Nordeste 0 -- -- 81
2019-02-10 17:00:00 9.3 20 Norte 51 Nordeste 0.2 -- -- 78
2019-02-10 16:00:00 9.7 25 Norte 43 Norte 2.4 -- -- 77
2019-02-10 15:00:00 8.1 28 Norte 45 Nordeste 3.8 -- -- 86
2019-02-10 14:00:00 9.7 18 Norte 36 Noroeste 1.4 -- -- 90
2019-02-10 13:00:00 11.1 11 Noroeste 40 Noroeste 0 -- -- 75
2019-02-10 12:00:00 10.6 15 Noroeste 49 Sudoeste 0 -- -- 75
2019-02-10 11:00:00 10.8 21 Oeste 45 Oeste 0 -- -- 70
2019-02-10 10:00:00 10.1 15 Oeste 40 Oeste 0 -- -- 72
2019-02-10 09:00:00 9.8 11 Noroeste 31 Oeste 0 -- -- 71
2019-02-10 08:00:00 8.9 13 Norte 27 Noroeste 0 -- -- 74
2019-02-10 07:00:00 9.2 11 Norte 33 Noroeste 0 -- -- 69
2019-02-10 06:00:00 9.3 11 Noroeste 27 Norte 0 -- -- 69
2019-02-10 05:00:00 9.5 8 Oeste 29 Noroeste 0 -- -- 66
2019-02-10 04:00:00 9.1 5 Noroeste 25 Oeste 0 -- -- 65
2019-02-10 03:00:00 8.7 5 Noroeste 20 Noroeste 0 -- -- 66
2019-02-10 02:00:00 8.3 11 Norte 39 Norte 0 -- -- 67
2019-02-10 01:00:00 8.9 21 Norte 40 Noroeste 0 -- -- 65
2019-02-10 00:00:00 9.4 18 Norte 35 Noroeste 0 -- -- 65
2019-02-09 23:00:00 10 20 Norte 34 Norte 0 -- -- 65
2019-02-09 22:00:00 9.8 8 Norte 19 Oeste 0 -- -- 66
2019-02-09 21:00:00 8.8 10 Nordeste 26 Noroeste 0 -- -- 72
2019-02-09 20:00:00 8.4 2 Nordeste 14 Nordeste 0 -- -- 72
2019-02-09 19:00:00 9.2 10 Nordeste 14 Nordeste 0 -- -- 66
2019-02-09 18:00:00 11 6 Norte 21 Noroeste 0 -- -- 60
2019-02-09 17:00:00 12.5 13 Noroeste 31 Noroeste 0 -- -- 55
2019-02-09 16:00:00 12.4 15 Noroeste 32 Noroeste 0 -- -- 56
2019-02-09 15:00:00 12.4 15 Noroeste 35 Noroeste 0 -- -- 57
2019-02-09 14:00:00 12.2 13 Oeste 36 Noroeste 0 -- -- 58
2019-02-09 13:00:00 11.8 17 Noroeste 39 Noroeste 0 -- -- 60
2019-02-09 12:00:00 10.9 14 Noroeste 40 Noroeste 0 -- -- 67
2019-02-09 11:00:00 10 17 Noroeste 39 Noroeste 0 -- -- 68
2019-02-09 10:00:00 8.7 13 Norte 32 Noroeste 0 -- -- 73
2019-02-09 09:00:00 7.8 15 Norte 35 Norte 0 -- -- 77
2019-02-09 08:00:00 7.1 13 Norte 33 Noroeste 0 -- -- 79
2019-02-09 07:00:00 7.3 18 Norte 33 Norte 0 -- -- 79
2019-02-09 06:00:00 7.1 15 Norte 28 Norte 0 -- -- 80
2019-02-09 05:00:00 7.1 15 Norte 27 Noroeste 0 -- -- 80
2019-02-09 04:00:00 7.1 15 Norte 32 Norte 0 -- -- 79
2019-02-09 03:00:00 6.8 17 Norte 30 Norte 0 -- -- 79
2019-02-09 02:00:00 7.2 13 Norte 27 Norte 0 -- -- 76
2019-02-09 01:00:00 7.9 17 Norte 33 Norte 0 -- -- 72
2019-02-09 00:00:00 8.1 12 Norte 31 Noroeste 0 -- -- 71
2019-02-08 23:00:00 8 14 Norte 35 Noroeste 0 -- -- 73
2019-02-08 22:00:00 9.1 17 Norte 33 Norte 0 -- -- 69
2019-02-08 21:00:00 9.3 12 Norte 26 Noroeste 0 -- -- 68
2019-02-08 20:00:00 8.1 5 Norte 13 Oeste 0 -- -- 77
2019-02-08 19:00:00 7.9 4 Norte 10 Sudoeste 0 -- -- 79
2019-02-08 18:00:00 11.6 6 Sudoeste 14 Noroeste 0 -- -- 68
2019-02-08 17:00:00 13.6 8 Noroeste 18 Oeste 0 -- -- 57
2019-02-08 16:00:00 12.6 6 Noroeste 14 Noroeste 0 -- -- 63
2019-02-08 15:00:00 11.9 6 Sudoeste 14 Sudoeste 0 -- -- 66
2019-02-08 14:00:00 10.3 6 Sudoeste 12 Sudoeste 0 -- -- 76
2019-02-08 13:00:00 8.1 5 Sur 12 Oeste 0 -- -- 89
2019-02-08 12:00:00 5.1 0 Calma 7 Sudoeste 0 -- -- 96
2019-02-08 11:00:00 2.9 3 Sudoeste 6 Sudoeste 0 -- -- 96
2019-02-08 10:00:00 1.6 0 Calma 4 Sudoeste 0 -- -- 97
2019-02-08 09:00:00 1.4 0 Calma 7 Oeste 0 -- -- 97
2019-02-08 08:00:00 0.7 0 Calma 4 Nordeste 0 -- -- 96
2019-02-08 07:00:00 0.8 2 Norte 5 Nordeste 0 -- -- 96
2019-02-08 06:00:00 1.6 3 Noroeste 9 Norte 0 -- -- 96
2019-02-08 05:00:00 2.4 4 Norte 8 Oeste 0 -- -- 97
2019-02-08 04:00:00 2.1 4 Norte 9 Oeste 0 -- -- 96
2019-02-08 03:00:00 2.6 0 Calma 6 Norte 0 -- -- 95
2019-02-08 02:00:00 3 2 Este 4 Este 0 -- -- 94
2019-02-08 01:00:00 3.6 0 Calma 11 Este 0 -- -- 92
2019-02-08 00:00:00 5.2 6 Este 12 Este 0 -- -- 90
2019-02-07 23:00:00 4.2 0 Calma 4 Sudeste 0 -- -- 91
2019-02-07 22:00:00 3.8 0 Calma 8 Nordeste 0 -- -- 89
2019-02-07 21:00:00 5.2 6 Nordeste 9 Nordeste 0 -- -- 85
2019-02-07 20:00:00 5.2 3 Este 11 Nordeste 0 -- -- 85
2019-02-07 19:00:00 7 2 Norte 13 Nordeste 0 -- -- 80
2019-02-07 18:00:00 9.6 5 Sudoeste 24 Nordeste 0 -- -- 72
2019-02-07 17:00:00 10.7 12 Nordeste 28 Nordeste 0 -- -- 66
2019-02-07 16:00:00 9.9 20 Nordeste 34 Nordeste 0 -- -- 71
2019-02-07 15:00:00 10.2 15 Nordeste 31 Nordeste 0 -- -- 75
2019-02-07 14:00:00 11.7 4 Sudoeste 15 Sudoeste 0 -- -- 66
2019-02-07 13:00:00 12 7 Sudoeste 15 Oeste 0 -- -- 66
2019-02-07 12:00:00 10 4 Noroeste 14 Noroeste 0 -- -- 67
2019-02-07 11:00:00 7.5 10 Noroeste 19 Oeste 0 -- -- 74
2019-02-07 10:00:00 7.1 2 Sur 6 Oeste 0 -- -- 80
2019-02-07 09:00:00 6.8 0 Calma 9 Norte 0 -- -- 78
2019-02-07 08:00:00 6.1 2 Este 10 Norte 0 -- -- 79
2019-02-07 07:00:00 6.7 5 Norte 18 Noroeste 0 -- -- 76
2019-02-07 06:00:00 8.5 8 Oeste 19 Norte 0 -- -- 66
2019-02-07 05:00:00 7.1 10 Nordeste 18 Noroeste 0 -- -- 67
2019-02-07 04:00:00 9.3 7 Norte 19 Norte 0 -- -- 57
2019-02-07 03:00:00 10.2 9 Norte 21 Norte 0 -- -- 57
2019-02-07 02:00:00 10.8 10 Norte 22 Noroeste 0 -- -- 58
2019-02-07 01:00:00 10.8 9 Noroeste 24 Norte 0 -- -- 63
2019-02-07 00:00:00 10.8 8 Norte 20 Norte 0 -- -- 64
2019-02-06 23:00:00 10.3 8 Norte 18 Noroeste 0 -- -- 67
2019-02-06 22:00:00 11 7 Norte 27 Norte 0 -- -- 65
2019-02-06 21:00:00 11.6 10 Noroeste 22 Norte 0 -- -- 63
2019-02-06 20:00:00 12.1 10 Norte 22 Norte 0 -- -- 61
2019-02-06 19:00:00 12.5 13 Norte 28 Norte 0 -- -- 59
2019-02-06 18:00:00 13.1 16 Norte 30 Norte 0 -- -- 58
2019-02-06 17:00:00 14.4 12 Noroeste 27 Noroeste 0 -- -- 55
2019-02-06 16:00:00 15.1 9 Oeste 20 Noroeste 0 -- -- 55
2019-02-06 15:00:00 13.6 12 Norte 22 Norte 0 -- -- 60
2019-02-06 14:00:00 14.1 9 Noroeste 17 Oeste 0 -- -- 60
2019-02-06 13:00:00 13.2 5 Noroeste 15 Norte 0 -- -- 63
2019-02-06 12:00:00 11 6 Noroeste 13 Noroeste 0 -- -- 73
2019-02-06 11:00:00 7.2 3 Sur 6 Sudoeste 0 -- -- 92
2019-02-06 10:00:00 3.9 2 Noroeste 5 Oeste 0 -- -- 97
2019-02-06 09:00:00 3 0 Calma 5 Norte 0 -- -- 98
2019-02-06 08:00:00 1.8 0 Calma 5 Nordeste 0 -- -- 98
2019-02-06 07:00:00 1.6 0 Calma 4 Norte 0 -- -- 97
2019-02-06 06:00:00 1.3 0 Calma 4 Norte 0 -- -- 97
2019-02-06 05:00:00 2.2 2 Norte 4 Norte 0 -- -- 96
2019-02-06 04:00:00 2.1 2 Norte 6 Norte 0 -- -- 96
2019-02-06 03:00:00 2.2 0 Calma 4 Nordeste 0 -- -- 96
2019-02-06 02:00:00 2.7 0 Calma 4 Norte 0 -- -- 95
2019-02-06 01:00:00 2.8 2 Norte 6 Norte 0 -- -- 94
2019-02-06 00:00:00 3.7 2 Sudeste 7 Norte 0 -- -- 93
2019-02-05 23:00:00 4.2 3 Norte 6 Norte 0 -- -- 93
2019-02-05 22:00:00 4.4 3 Nordeste 8 Norte 0 -- -- 90
2019-02-05 21:00:00 6.2 4 Norte 10 Nordeste 0 -- -- 84
2019-02-05 20:00:00 6.5 5 Nordeste 9 Norte 0 -- -- 86
2019-02-05 19:00:00 8 7 Nordeste 10 Nordeste 0 -- -- 80
2019-02-05 18:00:00 11.8 3 Sudoeste 13 Noroeste 0 -- -- 70
2019-02-05 17:00:00 13.5 6 Noroeste 21 Noroeste 0 -- -- 64
2019-02-05 16:00:00 12.8 10 Noroeste 17 Noroeste 0 -- -- 63
2019-02-05 15:00:00 12.4 9 Noroeste 23 Noroeste 0 -- -- 65
2019-02-05 14:00:00 11.5 15 Noroeste 24 Noroeste 0 -- -- 64
2019-02-05 13:00:00 10.9 9 Noroeste 15 Noroeste 0 -- -- 67
2019-02-05 12:00:00 10.1 2 Sur 6 Sur 0 -- -- 63
2019-02-05 11:00:00 7.2 2 Sudeste 5 Sur 0 -- -- 74
2019-02-05 10:00:00 4.7 2 Nordeste 10 Noroeste 0 -- -- 81
2019-02-05 09:00:00 4.7 4 Noroeste 12 Noroeste 0 -- -- 81
2019-02-05 08:00:00 5.6 7 Norte 21 Norte 0 -- -- 74
2019-02-05 07:00:00 5.3 6 Norte 15 Norte 0 -- -- 78
2019-02-05 06:00:00 6.1 7 Norte 16 Norte 0 -- -- 69
2019-02-05 05:00:00 5 8 Norte 12 Nordeste 0 -- -- 76
2019-02-05 04:00:00 4.5 5 Norte 6 Norte 0 -- -- 81
2019-02-05 03:00:00 4.3 3 Noroeste 9 Noroeste 0 -- -- 79
2019-02-05 02:00:00 5.4 5 Norte 14 Norte 0 -- -- 74
2019-02-05 01:00:00 5 6 Norte 13 Nordeste 0.2 -- -- 78
2019-02-05 00:00:00 4.4 3 Norte 21 Nordeste 0 -- -- 79
2019-02-04 23:00:00 5.8 14 Nordeste 23 Nordeste 0 -- -- 71
2019-02-04 22:00:00 5.9 9 Norte 21 Norte 0 -- -- 67
2019-02-04 21:00:00 5.7 10 Norte 19 Norte 0 -- -- 67
2019-02-04 20:00:00 5.6 10 Norte 24 Nordeste 0 -- -- 67
2019-02-04 19:00:00 5.4 12 Norte 25 Nordeste 0 -- -- 66
2019-02-04 18:00:00 5.2 9 Noroeste 18 Nordeste 0 -- -- 68
2019-02-04 17:00:00 5.7 2 Sur 9 Sudoeste 0 -- -- 70
2019-02-04 16:00:00 5.3 5 Oeste 13 Oeste 0 -- -- 69
2019-02-04 15:00:00 5 4 Noroeste 17 Noroeste 0 -- -- 70
2019-02-04 14:00:00 5 10 Oeste 15 Oeste 0 -- -- 69
2019-02-04 13:00:00 5.4 5 Noroeste 14 Oeste 0 -- -- 62
2019-02-04 12:00:00 4 8 Oeste 14 Noroeste 0 -- -- 70
2019-02-04 11:00:00 4.2 5 Noroeste 26 Norte 0 -- -- 65
2019-02-04 10:00:00 2.1 12 Norte 21 Noroeste 0 -- -- 72
2019-02-04 09:00:00 0.5 3 Sudoeste 27 Noroeste 0 -- -- 79
2019-02-04 08:00:00 1.2 10 Norte 25 Noroeste 0 -- -- 76
2019-02-04 07:00:00 1.6 12 Norte 20 Norte 0 -- -- 73
2019-02-04 06:00:00 -2.1 3 Noroeste 11 Noroeste 0 -- -- 95
2019-02-04 05:00:00 -1.8 4 Norte 11 Noroeste 0 -- -- 95
2019-02-04 04:00:00 -1 6 Noroeste 15 Norte 0 -- -- 94
2019-02-04 03:00:00 0.4 8 Nordeste 13 Nordeste 0 -- -- 89
2019-02-04 02:00:00 1.5 4 Noroeste 9 Norte 0 -- -- 88
2019-02-04 01:00:00 1 6 Norte 16 Noroeste 0 -- -- 92
2019-02-04 00:00:00 1.7 6 Norte 12 Nordeste 0 -- -- 87
2019-02-03 23:00:00 1.2 6 Noroeste 13 Norte 0 -- -- 91
2019-02-03 22:00:00 1.6 6 Norte 12 Norte 0 -- -- 92
2019-02-03 21:00:00 1.6 6 Norte 17 Norte 0 -- -- 91
2019-02-03 20:00:00 1.6 5 Noroeste 11 Noroeste 0.2 -- -- 91
2019-02-03 19:00:00 2.3 5 Noroeste 13 Norte 0 -- -- 85
2019-02-03 18:00:00 2.9 7 Noroeste 36 Norte 0 -- -- 81
2019-02-03 17:00:00 3 15 Norte 29 Norte 0 -- -- 80
2019-02-03 16:00:00 2.7 12 Noroeste 28 Norte 0 -- -- 85
2019-02-03 15:00:00 3.3 12 Norte 44 Nordeste 0 -- -- 80
2019-02-03 14:00:00 3 13 Norte 35 Norte 0.6 -- -- 81
2019-02-03 13:00:00 3.5 12 Noroeste 31 Noroeste 0 -- -- 78
2019-02-03 12:00:00 3.4 14 Noroeste 26 Noroeste 0 -- -- 80
2019-02-03 11:00:00 2.1 12 Norte 32 Oeste 0.8 -- -- 83
2019-02-03 10:00:00 0.5 13 Norte 29 Norte 1.4 -- -- 95
2019-02-03 09:00:00 0.9 13 Norte 27 Norte 0.2 -- -- 89
2019-02-03 08:00:00 0.5 8 Noroeste 30 Norte 0 -- -- 92
2019-02-03 07:00:00 0.5 8 Noroeste 34 Norte 0 -- -- 88
2019-02-03 06:00:00 0.2 5 Noroeste 22 Norte 0.4 -- -- 90
2019-02-03 05:00:00 0.6 9 Noroeste 23 Noroeste 0.2 -- -- 89
2019-02-03 04:00:00 0.6 9 Noroeste 27 Noroeste 0 -- -- 89
2019-02-03 03:00:00 0.7 9 Noroeste 21 Norte 0.2 -- -- 91
2019-02-03 02:00:00 0.6 9 Norte 41 Noroeste 0.6 -- -- 92
2019-02-03 01:00:00 0.2 15 Norte 55 Noroeste 0.4 -- -- 94
2019-02-03 00:00:00 1 8 Noroeste 32 Noroeste 0.2 -- -- 90
2019-02-02 23:00:00 0.6 10 Noroeste 24 Oeste 0.2 -- -- 93
2019-02-02 22:00:00 0.5 8 Noroeste 25 Norte 0.6 -- -- 95
2019-02-02 21:00:00 0.5 18 Norte 46 Norte 1.2 -- -- 94
2019-02-02 20:00:00 0.7 9 Noroeste 32 Norte 1 -- -- 94
2019-02-02 19:00:00 0.7 7 Noroeste 38 Noroeste 0.8 -- -- 90
2019-02-02 18:00:00 0.6 17 Norte 43 Norte 1.4 -- -- 92
2019-02-02 17:00:00 1.8 13 Noroeste 33 Norte 0 -- -- 83
2019-02-02 16:00:00 1.2 15 Noroeste 33 Noroeste 1.4 -- -- 93
2019-02-02 15:00:00 1.7 11 Norte 46 Noroeste 0 -- -- 84
2019-02-02 14:00:00 3.3 13 Norte 35 Noroeste 0 -- -- 73
2019-02-02 13:00:00 2.3 20 Norte 48 Nordeste 0.2 -- -- 85
2019-02-02 12:00:00 1.3 15 Noroeste 35 Noroeste 0.2 -- -- 89
2019-02-02 11:00:00 2.1 20 Noroeste 49 Norte 0 -- -- 83
2019-02-02 10:00:00 1.8 17 Noroeste 41 Noroeste 0.4 -- -- 89
2019-02-02 09:00:00 0.9 14 Noroeste 36 Noroeste 2.4 -- -- 95
2019-02-02 08:00:00 1.6 14 Noroeste 37 Norte 2.4 -- -- 92
2019-02-02 07:00:00 1.1 13 Noroeste 25 Noroeste 3 -- -- 97
2019-02-02 06:00:00 0.4 7 Noroeste 24 Oeste 2.8 -- -- 97
2019-02-02 05:00:00 0.4 13 Noroeste 32 Norte 2.8 -- -- 97
2019-02-02 04:00:00 0.4 12 Noroeste 26 Noroeste 5.8 -- -- 96
2019-02-02 03:00:00 0.2 6 Noroeste 20 Noroeste 3.2 -- -- 94
2019-02-02 02:00:00 2.1 9 Noroeste 21 Noroeste 1.2 -- -- 91
2019-02-02 01:00:00 3.1 9 Noroeste 32 Noroeste 0.2 -- -- 87
2019-02-02 00:00:00 3.1 12 Noroeste 44 Noroeste 0 -- -- 87
2019-02-01 23:00:00 3.6 12 Noroeste 24 Noroeste 0 -- -- 82
2019-02-01 22:00:00 3.8 11 Noroeste 28 Oeste 0 -- -- 80
2019-02-01 21:00:00 3.5 10 Noroeste 26 Oeste 0 -- -- 80
2019-02-01 20:00:00 4.1 10 Oeste 29 Oeste 0 -- -- 80
2019-02-01 19:00:00 4.7 9 Noroeste 39 Noroeste 0 -- -- 73
2019-02-01 18:00:00 5.8 11 Noroeste 43 Noroeste 0.8 -- -- 75
2019-02-01 17:00:00 4.6 13 Noroeste 42 Noroeste 0.8 -- -- 83
2019-02-01 16:00:00 4.6 20 Noroeste 63 Sudoeste 0.2 -- -- 84
2019-02-01 15:00:00 8.3 13 Oeste 40 Oeste 0 -- -- 63
2019-02-01 14:00:00 8.3 20 Oeste 48 Oeste 0 -- -- 62
2019-02-01 13:00:00 8.7 23 Sudoeste 53 Sudoeste 0 -- -- 62
2019-02-01 12:00:00 8.2 18 Oeste 50 Oeste 0 -- -- 62
2019-02-01 11:00:00 7.9 16 Oeste 51 Oeste 0 -- -- 62
2019-02-01 10:00:00 6.4 14 Oeste 44 Oeste 0 -- -- 69
2019-02-01 09:00:00 5.5 8 Oeste 32 Oeste 0 -- -- 76
2019-02-01 08:00:00 5.8 15 Oeste 38 Oeste 0 -- -- 79
2019-02-01 07:00:00 5.6 10 Noroeste 28 Noroeste 0.2 -- -- 87
2019-02-01 06:00:00 6.1 8 Norte 24 Norte 0 -- -- 78
2019-02-01 05:00:00 7 9 Noroeste 24 Noroeste 0 -- -- 76
2019-02-01 04:00:00 7.9 14 Noroeste 31 Noroeste 0 -- -- 77
2019-02-01 03:00:00 8.7 8 Noroeste 22 Noroeste 0 -- -- 81
2019-02-01 02:00:00 7.9 4 Nordeste 21 Norte 0 -- -- 92
2019-02-01 01:00:00 9.6 11 Norte 21 Norte 0 -- -- 86
2019-02-01 00:00:00 8.8 10 Norte 26 Noroeste 1.4 -- -- 89
2019-01-31 23:00:00 9.7 12 Norte 31 Norte 1.6 -- -- 91
2019-01-31 22:00:00 10.5 14 Norte 31 Noroeste 0.2 -- -- 86
2019-01-31 21:00:00 11.6 11 Oeste 26 Noroeste 0 -- -- 76
2019-01-31 20:00:00 11.3 12 Noroeste 33 Oeste 0 -- -- 76
2019-01-31 19:00:00 11.3 11 Noroeste 23 Oeste 0 -- -- 76
2019-01-31 18:00:00 9.3 2 Oeste 8 Sudoeste 0 -- -- 84
2019-01-31 17:00:00 9.8 5 Oeste 25 Oeste 0 -- -- 82
2019-01-31 16:00:00 10.6 5 Oeste 23 Oeste 0 -- -- 80
2019-01-31 15:00:00 11.2 11 Oeste 26 Noroeste 0 -- -- 80
2019-01-31 14:00:00 9.2 3 Norte 23 Oeste 0 -- -- 90
2019-01-31 13:00:00 11.2 8 Oeste 40 Oeste 0 -- -- 81
2019-01-31 12:00:00 10 6 Sudoeste 19 Oeste 0 -- -- 84
2019-01-31 11:00:00 8.7 4 Noroeste 19 Noroeste 0 -- -- 90
2019-01-31 10:00:00 6.9 7 Noroeste 26 Noroeste 0.6 -- -- 98
2019-01-31 09:00:00 4.7 2 Nordeste 10 Nordeste 0.8 -- -- 98
2019-01-31 08:00:00 4.3 5 Sur 11 Oeste 1.6 -- -- 97
2019-01-31 07:00:00 4.2 2 Norte 9 Norte 1 -- -- 97
2019-01-31 06:00:00 4.3 3 Oeste 6 Sudoeste 1.6 -- -- 97
2019-01-31 05:00:00 4.2 4 Nordeste 12 Sudoeste 0.8 -- -- 97
2019-01-31 04:00:00 4.1 2 Sudoeste 6 Sudoeste 1.2 -- -- 96
2019-01-31 03:00:00 4.2 0 Calma 6 Sudoeste 1 -- -- 96
2019-01-31 02:00:00 3.9 4 Sudoeste 11 Noroeste 1.2 -- -- 96
2019-01-31 01:00:00 4 2 Sudeste 8 Este 1.6 -- -- 95
2019-01-31 00:00:00 4.1 5 Oeste 16 Noroeste 0.8 -- -- 94
2019-01-30 23:00:00 4.5 4 Norte 19 Este 1.2 -- -- 92
2019-01-30 22:00:00 4.7 6 Norte 21 Noroeste 1 -- -- 89
2019-01-30 21:00:00 5.5 12 Noroeste 26 Norte 0.2 -- -- 82
2019-01-30 20:00:00 5.8 15 Norte 25 Norte 0 -- -- 78
2019-01-30 19:00:00 6.1 12 Noroeste 27 Oeste 0 -- -- 75
2019-01-30 18:00:00 7.2 13 Noroeste 35 Noroeste 0 -- -- 61
2019-01-30 17:00:00 7.7 9 Noroeste 35 Oeste 0 -- -- 56
2019-01-30 16:00:00 7.8 11 Oeste 37 Oeste 0 -- -- 51
2019-01-30 15:00:00 7.4 14 Noroeste 32 Oeste 0 -- -- 56
2019-01-30 14:00:00 7.3 12 Oeste 35 Oeste 0 -- -- 59
2019-01-30 13:00:00 6.5 16 Oeste 32 Oeste 0 -- -- 64
2019-01-30 12:00:00 5.5 12 Noroeste 35 Oeste 0 -- -- 69
2019-01-30 11:00:00 4.1 14 Noroeste 31 Noroeste 0 -- -- 72
2019-01-30 10:00:00 3.2 10 Noroeste 23 Oeste 0 -- -- 77
2019-01-30 09:00:00 2.4 5 Norte 13 Noroeste 0 -- -- 82
2019-01-30 08:00:00 2.5 7 Norte 17 Norte 0 -- -- 82
2019-01-30 07:00:00 3.1 8 Norte 20 Noroeste 0 -- -- 78
2019-01-30 06:00:00 3.4 10 Norte 17 Noroeste 0 -- -- 76
2019-01-30 05:00:00 3.2 3 Noroeste 17 Noroeste 0 -- -- 81
2019-01-30 04:00:00 4 13 Noroeste 35 Noroeste 0 -- -- 76
2019-01-30 03:00:00 3.6 12 Norte 29 Noroeste 0 -- -- 78
2019-01-30 02:00:00 4.1 10 Noroeste 36 Norte 0 -- -- 73
2019-01-30 01:00:00 3.9 14 Noroeste 32 Noroeste 0 -- -- 75
2019-01-30 00:00:00 4.1 16 Noroeste 33 Noroeste 0 -- -- 73
2019-01-29 23:00:00 4.2 14 Noroeste 39 Noroeste 0 -- -- 75
2019-01-29 22:00:00 4.7 14 Noroeste 37 Norte 0 -- -- 78
2019-01-29 21:00:00 5.4 15 Noroeste 30 Oeste 0 -- -- 75
2019-01-29 20:00:00 5.4 15 Norte 36 Noroeste 0 -- -- 74
2019-01-29 19:00:00 6.3 19 Norte 50 Norte 0 -- -- 71
2019-01-29 18:00:00 7.2 27 Norte 69 Norte 0 -- -- 70
2019-01-29 17:00:00 8.2 30 Norte 57 Norte 0 -- -- 73
2019-01-29 16:00:00 7.7 18 Noroeste 44 Noroeste 0.8 -- -- 86
2019-01-29 15:00:00 8.5 11 Noroeste 36 Oeste 0 -- -- 79
2019-01-29 14:00:00 7.3 9 Noroeste 49 Oeste 0 -- -- 82
2019-01-29 13:00:00 6.5 9 Norte 31 Norte 0 -- -- 82
2019-01-29 12:00:00 5.7 17 Norte 41 Noroeste 0 -- -- 79
2019-01-29 11:00:00 5.2 13 Noroeste 40 Noroeste 0 -- -- 78
2019-01-29 10:00:00 4.5 15 Noroeste 40 Noroeste 0 -- -- 81
2019-01-29 09:00:00 4.3 17 Noroeste 40 Noroeste 0 -- -- 79
2019-01-29 08:00:00 3.6 14 Norte 24 Norte 0 -- -- 77
2019-01-29 07:00:00 3 4 Noroeste 19 Sudoeste 0 -- -- 87
2019-01-29 06:00:00 2.4 3 Nordeste 15 Noroeste 0 -- -- 90
2019-01-29 05:00:00 4.2 11 Norte 26 Noroeste 0 -- -- 85
2019-01-29 04:00:00 4.1 11 Norte 21 Norte 0 -- -- 87
2019-01-29 03:00:00 4.3 9 Norte 23 Norte 0 -- -- 89
2019-01-29 02:00:00 4.5 11 Norte 26 Noroeste 0 -- -- 89
2019-01-29 01:00:00 4.5 12 Norte 27 Noroeste 0 -- -- 89
2019-01-29 00:00:00 4.4 12 Norte 25 Noroeste 0.2 -- -- 91
2019-01-28 23:00:00 4.7 10 Noroeste 27 Norte 0.6 -- -- 89
2019-01-28 22:00:00 4.9 10 Noroeste 31 Noroeste 0 -- -- 87
2019-01-28 21:00:00 4.9 12 Noroeste 23 Noroeste 0 -- -- 87
2019-01-28 20:00:00 5 12 Norte 31 Noroeste 0.2 -- -- 87
2019-01-28 19:00:00 5 13 Norte 32 Noroeste 0.8 -- -- 91
2019-01-28 18:00:00 5.6 15 Norte 35 Norte 0.6 -- -- 85
2019-01-28 17:00:00 5.4 14 Norte 26 Norte 2.8 -- -- 87
2019-01-28 16:00:00 6.4 11 Noroeste 23 Noroeste 1.6 -- -- 89
2019-01-28 15:00:00 5.7 9 Noroeste 39 Noroeste 1.6 -- -- 88
2019-01-28 14:00:00 6.9 15 Noroeste 42 Norte 0 -- -- 75
2019-01-28 13:00:00 5.5 5 Norte 14 Noroeste 0.8 -- -- 91
2019-01-28 12:00:00 4.4 5 Norte 26 Noroeste 0.2 -- -- 89
2019-01-28 11:00:00 3.9 11 Noroeste 30 Norte 0 -- -- 87
2019-01-28 10:00:00 3.4 10 Noroeste 30 Noroeste 0 -- -- 83
2019-01-28 09:00:00 3.1 12 Noroeste 34 Noroeste 0 -- -- 84
2019-01-28 08:00:00 3.1 12 Noroeste 31 Noroeste 0 -- -- 84
2019-01-28 07:00:00 2.6 10 Noroeste 33 Noroeste 0 -- -- 85
2019-01-28 06:00:00 2.9 14 Noroeste 32 Noroeste 0 -- -- 79
2019-01-28 05:00:00 2.9 13 Noroeste 30 Noroeste 0 -- -- 77
2019-01-28 04:00:00 3.5 13 Norte 26 Norte 0 -- -- 74
2019-01-28 03:00:00 4.2 10 Norte 22 Noroeste 0.2 -- -- 76
2019-01-28 02:00:00 4.3 8 Norte 19 Noroeste 0 -- -- 78
2019-01-28 01:00:00 4.1 9 Norte 30 Noroeste 0 -- -- 82
2019-01-28 00:00:00 3.9 12 Noroeste 27 Noroeste 0.2 -- -- 88
2019-01-27 23:00:00 3.8 12 Noroeste 22 Noroeste 0 -- -- 89
2019-01-27 22:00:00 4.1 10 Noroeste 21 Noroeste 0 -- -- 86
2019-01-27 21:00:00 3.7 9 Norte 22 Noroeste 0.2 -- -- 89
2019-01-27 20:00:00 3.8 7 Noroeste 27 Noroeste 0.2 -- -- 89
2019-01-27 19:00:00 4.3 10 Noroeste 27 Noroeste 0 -- -- 84
2019-01-27 18:00:00 4.6 7 Norte 33 Noroeste 0.2 -- -- 83
2019-01-27 17:00:00 5.1 9 Noroeste 35 Norte 0.4 -- -- 81
2019-01-27 16:00:00 6.6 17 Norte 44 Noroeste 0 -- -- 68
2019-01-27 15:00:00 7.8 18 Noroeste 44 Norte 0 -- -- 64
2019-01-27 14:00:00 6.3 17 Noroeste 44 Norte 0 -- -- 75
2019-01-27 13:00:00 6.7 16 Noroeste 53 Noroeste 0 -- -- 74
2019-01-27 12:00:00 6.6 25 Noroeste 52 Noroeste 0 -- -- 73
2019-01-27 11:00:00 7.1 15 Noroeste 38 Norte 0 -- -- 70
2019-01-27 10:00:00 6.2 18 Noroeste 57 Noroeste 0 -- -- 65
2019-01-27 09:00:00 6.2 23 Noroeste 44 Noroeste 0 -- -- 64
2019-01-27 08:00:00 6 18 Norte 32 Noroeste 0 -- -- 79
2019-01-27 07:00:00 4.8 5 Noroeste 15 Noroeste 0 -- -- 81
2019-01-27 06:00:00 5.1 6 Noroeste 15 Noroeste 0 -- -- 80
2019-01-27 05:00:00 6 11 Norte 25 Norte 0 -- -- 77
2019-01-27 04:00:00 6.5 12 Noroeste 31 Noroeste 0 -- -- 73
2019-01-27 03:00:00 7.8 13 Noroeste 29 Noroeste 0 -- -- 71
2019-01-27 02:00:00 8.5 18 Norte 39 Norte 0 -- -- 72
2019-01-27 01:00:00 9.2 19 Noroeste 39 Oeste 0 -- -- 69
2019-01-27 00:00:00 8.7 12 Norte 27 Norte 0 -- -- 72
2019-01-26 23:00:00 8.6 10 Norte 27 Noroeste 0 -- -- 72
2019-01-26 22:00:00 8.5 15 Norte 34 Nordeste 0 -- -- 71
2019-01-26 21:00:00 8.9 14 Norte 28 Nordeste 0 -- -- 68
2019-01-26 20:00:00 8.9 13 Norte 26 Noroeste 0 -- -- 71
2019-01-26 19:00:00 8.9 11 Norte 21 Noroeste 0 -- -- 71
2019-01-26 18:00:00 10.2 8 Noroeste 23 Noroeste 0 -- -- 70
2019-01-26 17:00:00 12 12 Noroeste 23 Oeste 0 -- -- 66
2019-01-26 16:00:00 11.6 10 Noroeste 21 Oeste 0 -- -- 67
2019-01-26 15:00:00 12.1 9 Oeste 18 Oeste 0 -- -- 64
2019-01-26 14:00:00 11.1 6 Oeste 21 Oeste 0 -- -- 66
2019-01-26 13:00:00 8.7 12 Oeste 24 Noroeste 0 -- -- 73
2019-01-26 12:00:00 8.7 7 Noroeste 13 Oeste 0 -- -- 73
2019-01-26 11:00:00 7 6 Noroeste 12 Noroeste 0 -- -- 80
2019-01-26 10:00:00 4 6 Noroeste 13 Noroeste 0 -- -- 88
2019-01-26 09:00:00 4.6 4 Norte 10 Noroeste 0 -- -- 88
2019-01-26 08:00:00 5.9 6 Norte 11 Nordeste 0 -- -- 81
2019-01-26 07:00:00 6.6 6 Norte 11 Norte 0 -- -- 77
2019-01-26 06:00:00 6.4 3 Norte 14 Norte 0 -- -- 81
2019-01-26 05:00:00 6.7 8 Norte 12 Norte 0 -- -- 78
2019-01-26 04:00:00 6.5 8 Norte 12 Nordeste 0 -- -- 85
2019-01-26 03:00:00 6.5 4 Noroeste 8 Noroeste 0 -- -- 86
2019-01-26 02:00:00 6.5 5 Norte 8 Norte 0 -- -- 88
2019-01-26 01:00:00 6.6 3 Norte 15 Noroeste 0 -- -- 88
2019-01-26 00:00:00 7 8 Noroeste 23 Noroeste 0 -- -- 85
2019-01-25 23:00:00 7.1 11 Noroeste 21 Noroeste 0 -- -- 85
2019-01-25 22:00:00 7.1 6 Norte 20 Norte 0 -- -- 82
2019-01-25 21:00:00 7.2 9 Norte 17 Noroeste 0.2 -- -- 81
2019-01-25 20:00:00 7.2 9 Norte 28 Noroeste 0 -- -- 82
2019-01-25 19:00:00 7.5 13 Norte 31 Norte 0 -- -- 80
2019-01-25 18:00:00 7.6 15 Norte 28 Norte 0 -- -- 83
2019-01-25 17:00:00 7.9 15 Norte 45 Norte 0 -- -- 83
2019-01-25 16:00:00 8 15 Noroeste 38 Noroeste 0 -- -- 86
2019-01-25 15:00:00 9.2 15 Norte 46 Norte 0 -- -- 78
2019-01-25 14:00:00 9 19 Norte 41 Norte 0 -- -- 80
2019-01-25 13:00:00 9.3 15 Norte 40 Noroeste 0 -- -- 80
2019-01-25 12:00:00 8.4 18 Noroeste 41 Oeste 0 -- -- 86
2019-01-25 11:00:00 7.9 17 Norte 36 Norte 0 -- -- 89
2019-01-25 10:00:00 7.9 17 Norte 40 Norte 0 -- -- 87
2019-01-25 09:00:00 7.3 13 Noroeste 24 Noroeste 0.2 -- -- 94
2019-01-25 08:00:00 7.3 13 Norte 34 Norte 0.4 -- -- 93
2019-01-25 07:00:00 7.2 13 Noroeste 27 Noroeste 0.6 -- -- 94
2019-01-25 06:00:00 7.2 13 Noroeste 42 Norte 0.2 -- -- 93
2019-01-25 05:00:00 7.9 23 Norte 49 Norte 0 -- -- 87
2019-01-25 04:00:00 7.8 19 Norte 40 Noroeste 0 -- -- 89
2019-01-25 03:00:00 8 19 Norte 38 Norte 0 -- -- 88
2019-01-25 02:00:00 7.7 15 Norte 30 Noroeste 0.4 -- -- 93
2019-01-25 01:00:00 6.6 6 Noroeste 34 Noroeste 0.6 -- -- 94
2019-01-25 00:00:00 7.3 14 Noroeste 35 Noroeste 0 -- -- 89
2019-01-24 23:00:00 7.3 9 Norte 45 Nordeste 0 -- -- 88
2019-01-24 22:00:00 7.5 14 Norte 50 Noroeste 0 -- -- 86
2019-01-24 21:00:00 7.6 28 Nordeste 57 Nordeste 0 -- -- 82
2019-01-24 20:00:00 7.4 19 Nordeste 42 Norte 0 -- -- 81
2019-01-24 19:00:00 6.3 9 Norte 37 Norte 0 -- -- 86
2019-01-24 18:00:00 6.1 8 Noroeste 26 Norte 0 -- -- 87
2019-01-24 17:00:00 5.6 10 Noroeste 25 Noroeste 0 -- -- 92
2019-01-24 16:00:00 5.6 10 Noroeste 23 Noroeste 0 -- -- 93
2019-01-24 15:00:00 5.2 13 Oeste 27 Noroeste 0 -- -- 92
2019-01-24 14:00:00 5.6 11 Noroeste 23 Noroeste 0.2 -- -- 85
2019-01-24 13:00:00 5 9 Noroeste 22 Noroeste 0 -- -- 87
2019-01-24 12:00:00 3.8 2 Nordeste 14 Sur 1.6 -- -- 93
2019-01-24 11:00:00 4.1 5 Noroeste 29 Nordeste 0.8 -- -- 89
2019-01-24 10:00:00 4.4 15 Norte 35 Norte 0.4 -- -- 86
2019-01-24 09:00:00 4.5 20 Norte 49 Nordeste 0.2 -- -- 85
2019-01-24 08:00:00 4.5 18 Nordeste 42 Nordeste 0.4 -- -- 88
2019-01-24 07:00:00 4.6 15 Norte 40 Nordeste 0.4 -- -- 89
2019-01-24 06:00:00 4.9 23 Nordeste 42 Norte 0.4 -- -- 87
2019-01-24 05:00:00 4.9 19 Norte 40 Norte 0.4 -- -- 89
2019-01-24 04:00:00 4.9 21 Norte 37 Norte 0.4 -- -- 90
2019-01-24 03:00:00 4.8 18 Norte 49 Noroeste 1.4 -- -- 91
2019-01-24 02:00:00 4.6 20 Norte 49 Noroeste 0.8 -- -- 90
2019-01-24 01:00:00 4.7 17 Norte 49 Norte 1 -- -- 87
2019-01-24 00:00:00 5.1 22 Norte 51 Norte 1.2 -- -- 89